sensor_id;sensor_type;location;lat;lon;timestamp;temperature;humidity
50067;DHT22;35952;52.524;13.340;2023-04-15T00:01:50;9.00;99.90
50067;DHT22;35952;52.524;13.340;2023-04-15T00:04:16;9.00;99.90
50067;DHT22;35952;52.524;13.340;2023-04-15T00:06:42;9.10;99.90
50067;DHT22;35952;52.524;13.340;2023-04-15T00:09:07;9.10;99.90
50067;DHT22;35952;52.524;13.340;2023-04-15T00:11:33;9.10;99.90
50067;DHT22;35952;52.524;13.340;2023-04-15T00:13:59;9.10;99.90
50067;DHT22;35952;52.524;13.340;2023-04-15T00:16:25;9.10;99.90
50067;DHT22;35952;52.524;13.340;2023-04-15T00:18:50;9.00;99.90
50067;DHT22;35952;52.524;13.340;2023-04-15T00:21:16;8.90;99.90
50067;DHT22;35952;52.524;13.340;2023-04-15T00:23:41;8.90;99.90
50067;DHT22;35952;52.524;13.340;2023-04-15T00:26:07;8.90;99.90
50067;DHT22;35952;52.524;13.340;2023-04-15T00:28:33;9.00;99.90
50067;DHT22;35952;52.524;13.340;2023-04-15T00:30:58;9.00;99.90
50067;DHT22;35952;52.524;13.340;2023-04-15T00:33:24;9.10;99.90
50067;DHT22;35952;52.524;13.340;2023-04-15T00:35:49;9.00;99.90
50067;DHT22;35952;52.524;13.340;2023-04-15T00:38:15;9.00;99.90
50067;DHT22;35952;52.524;13.340;2023-04-15T00:40:40;9.00;99.90
50067;DHT22;35952;52.524;13.340;2023-04-15T00:43:06;9.00;99.90
50067;DHT22;35952;52.524;13.340;2023-04-15T00:45:32;9.00;99.90
50067;DHT22;35952;52.524;13.340;2023-04-15T00:47:58;9.10;99.90
50067;DHT22;35952;52.524;13.340;2023-04-15T00:50:24;9.00;99.90
50067;DHT22;35952;52.524;13.340;2023-04-15T00:52:49;9.00;99.90
50067;DHT22;35952;52.524;13.340;2023-04-15T00:55:15;9.00;99.90
50067;DHT22;35952;52.524;13.340;2023-04-15T00:57:40;9.00;99.90
50067;DHT22;35952;52.524;13.340;2023-04-15T01:00:06;9.00;99.90
50067;DHT22;35952;52.524;13.340;2023-04-15T01:02:33;9.00;99.90
50067;DHT22;35952;52.524;13.340;2023-04-15T01:04:59;9.00;99.90
50067;DHT22;35952;52.524;13.340;2023-04-15T01:07:24;8.90;99.90
50067;DHT22;35952;52.524;13.340;2023-04-15T01:09:51;9.00;99.90
50067;DHT22;35952;52.524;13.340;2023-04-15T01:12:17;9.00;99.90
50067;DHT22;35952;52.524;13.340;2023-04-15T01:14:44;9.00;99.90
50067;DHT22;35952;52.524;13.340;2023-04-15T01:17:10;9.00;99.90
50067;DHT22;35952;52.524;13.340;2023-04-15T01:19:37;9.00;99.90
50067;DHT22;35952;52.524;13.340;2023-04-15T01:22:03;8.90;99.90
50067;DHT22;35952;52.524;13.340;2023-04-15T01:24:30;9.10;99.90
50067;DHT22;35952;52.524;13.340;2023-04-15T01:26:56;9.00;99.90
50067;DHT22;35952;52.524;13.340;2023-04-15T01:29:22;8.90;99.90
50067;DHT22;35952;52.524;13.340;2023-04-15T01:31:50;8.90;99.90
50067;DHT22;35952;52.524;13.340;2023-04-15T01:34:16;9.10;99.90
50067;DHT22;35952;52.524;13.340;2023-04-15T01:36:41;9.10;99.90
50067;DHT22;35952;52.524;13.340;2023-04-15T01:39:07;9.00;99.90
50067;DHT22;35952;52.524;13.340;2023-04-15T01:41:33;9.10;99.90
50067;DHT22;35952;52.524;13.340;2023-04-15T01:43:58;9.00;99.90
50067;DHT22;35952;52.524;13.340;2023-04-15T01:46:24;9.10;99.90
50067;DHT22;35952;52.524;13.340;2023-04-15T01:48:49;9.10;99.90
50067;DHT22;35952;52.524;13.340;2023-04-15T01:51:15;9.10;99.90
50067;DHT22;35952;52.524;13.340;2023-04-15T01:53:40;8.90;99.90
50067;DHT22;35952;52.524;13.340;2023-04-15T01:56:06;9.00;99.90
50067;DHT22;35952;52.524;13.340;2023-04-15T01:58:32;9.00;99.90
50067;DHT22;35952;52.524;13.340;2023-04-15T02:00:57;9.00;99.90
50067;DHT22;35952;52.524;13.340;2023-04-15T02:03:24;9.10;99.90
50067;DHT22;35952;52.524;13.340;2023-04-15T02:05:49;9.00;99.90
50067;DHT22;35952;52.524;13.340;2023-04-15T02:08:15;9.00;99.90
50067;DHT22;35952;52.524;13.340;2023-04-15T02:10:41;9.00;99.90
50067;DHT22;35952;52.524;13.340;2023-04-15T02:13:07;9.00;99.90
50067;DHT22;35952;52.524;13.340;2023-04-15T02:15:33;9.00;99.90
50067;DHT22;35952;52.524;13.340;2023-04-15T02:17:58;9.00;99.90
50067;DHT22;35952;52.524;13.340;2023-04-15T02:20:25;9.00;99.90
50067;DHT22;35952;52.524;13.340;2023-04-15T02:22:50;9.00;99.90
50067;DHT22;35952;52.524;13.340;2023-04-15T02:25:16;8.90;99.90
50067;DHT22;35952;52.524;13.340;2023-04-15T02:27:42;9.00;99.90
50067;DHT22;35952;52.524;13.340;2023-04-15T02:30:11;8.90;99.90
50067;DHT22;35952;52.524;13.340;2023-04-15T02:32:37;8.90;99.90
50067;DHT22;35952;52.524;13.340;2023-04-15T02:35:07;9.00;99.90
50067;DHT22;35952;52.524;13.340;2023-04-15T02:37:35;9.00;99.90
50067;DHT22;35952;52.524;13.340;2023-04-15T02:40:07;9.10;99.90
50067;DHT22;35952;52.524;13.340;2023-04-15T02:42:32;9.10;99.90
50067;DHT22;35952;52.524;13.340;2023-04-15T02:44:58;9.10;99.90
50067;DHT22;35952;52.524;13.340;2023-04-15T02:47:23;9.00;99.90
50067;DHT22;35952;52.524;13.340;2023-04-15T02:49:49;9.10;99.90
50067;DHT22;35952;52.524;13.340;2023-04-15T02:52:14;9.10;99.90
50067;DHT22;35952;52.524;13.340;2023-04-15T02:54:40;9.10;99.90
50067;DHT22;35952;52.524;13.340;2023-04-15T02:57:06;9.10;99.90
50067;DHT22;35952;52.524;13.340;2023-04-15T02:59:31;9.10;99.90
50067;DHT22;35952;52.524;13.340;2023-04-15T03:01:57;9.10;99.90
50067;DHT22;35952;52.524;13.340;2023-04-15T03:04:25;9.10;99.90
50067;DHT22;35952;52.524;13.340;2023-04-15T03:06:51;9.10;99.90
50067;DHT22;35952;52.524;13.340;2023-04-15T03:09:16;9.20;99.90
50067;DHT22;35952;52.524;13.340;2023-04-15T03:11:42;9.20;99.90
50067;DHT22;35952;52.524;13.340;2023-04-15T03:14:07;9.20;99.90
50067;DHT22;35952;52.524;13.340;2023-04-15T03:16:33;9.20;99.90
50067;DHT22;35952;52.524;13.340;2023-04-15T03:18:59;9.20;99.90
50067;DHT22;35952;52.524;13.340;2023-04-15T03:21:24;9.30;99.90
50067;DHT22;35952;52.524;13.340;2023-04-15T03:23:51;9.30;99.90
50067;DHT22;35952;52.524;13.340;2023-04-15T03:26:30;9.20;99.90
50067;DHT22;35952;52.524;13.340;2023-04-15T03:28:56;9.30;99.90
50067;DHT22;35952;52.524;13.340;2023-04-15T03:31:22;9.30;99.90
50067;DHT22;35952;52.524;13.340;2023-04-15T03:33:48;9.20;99.90
50067;DHT22;35952;52.524;13.340;2023-04-15T03:36:13;9.30;99.90
50067;DHT22;35952;52.524;13.340;2023-04-15T03:38:39;9.30;99.90
50067;DHT22;35952;52.524;13.340;2023-04-15T03:41:04;9.30;99.90
50067;DHT22;35952;52.524;13.340;2023-04-15T03:43:30;9.30;99.90
50067;DHT22;35952;52.524;13.340;2023-04-15T03:45:56;9.30;99.90
50067;DHT22;35952;52.524;13.340;2023-04-15T03:48:21;9.30;99.90
50067;DHT22;35952;52.524;13.340;2023-04-15T03:50:47;9.30;99.90
50067;DHT22;35952;52.524;13.340;2023-04-15T03:53:12;9.30;99.90
50067;DHT22;35952;52.524;13.340;2023-04-15T03:55:38;9.40;99.90
50067;DHT22;35952;52.524;13.340;2023-04-15T03:58:04;9.40;99.90
50067;DHT22;35952;52.524;13.340;2023-04-15T04:00:29;9.40;99.90
50067;DHT22;35952;52.524;13.340;2023-04-15T04:02:55;9.40;99.90
50067;DHT22;35952;52.524;13.340;2023-04-15T04:05:21;9.40;99.90
50067;DHT22;35952;52.524;13.340;2023-04-15T04:07:46;9.40;99.90
50067;DHT22;35952;52.524;13.340;2023-04-15T04:10:12;9.50;99.90
50067;DHT22;35952;52.524;13.340;2023-04-15T04:12:37;9.50;99.90
50067;DHT22;35952;52.524;13.340;2023-04-15T04:15:03;9.50;99.90
50067;DHT22;35952;52.524;13.340;2023-04-15T04:17:29;9.50;99.90
50067;DHT22;35952;52.524;13.340;2023-04-15T04:19:55;9.40;99.90
50067;DHT22;35952;52.524;13.340;2023-04-15T04:22:23;9.50;99.90
50067;DHT22;35952;52.524;13.340;2023-04-15T04:24:49;9.50;99.90
50067;DHT22;35952;52.524;13.340;2023-04-15T04:27:15;9.50;99.90
50067;DHT22;35952;52.524;13.340;2023-04-15T04:29:40;9.50;99.90
50067;DHT22;35952;52.524;13.340;2023-04-15T04:32:06;9.50;99.90
50067;DHT22;35952;52.524;13.340;2023-04-15T04:34:31;9.50;99.90
50067;DHT22;35952;52.524;13.340;2023-04-15T04:36:57;9.50;99.90
50067;DHT22;35952;52.524;13.340;2023-04-15T04:39:22;9.60;99.90
50067;DHT22;35952;52.524;13.340;2023-04-15T04:41:48;9.50;99.90
50067;DHT22;35952;52.524;13.340;2023-04-15T04:44:14;9.60;99.90
50067;DHT22;35952;52.524;13.340;2023-04-15T04:46:40;9.60;99.90
50067;DHT22;35952;52.524;13.340;2023-04-15T04:49:05;9.60;99.90
50067;DHT22;35952;52.524;13.340;2023-04-15T04:51:31;9.60;99.90
50067;DHT22;35952;52.524;13.340;2023-04-15T04:53:56;9.60;99.90
50067;DHT22;35952;52.524;13.340;2023-04-15T04:56:22;9.70;99.90
50067;DHT22;35952;52.524;13.340;2023-04-15T04:58:48;9.70;99.90
50067;DHT22;35952;52.524;13.340;2023-04-15T05:01:13;9.70;99.90
50067;DHT22;35952;52.524;13.340;2023-04-15T05:03:39;9.70;99.90
50067;DHT22;35952;52.524;13.340;2023-04-15T05:06:04;9.70;99.90
50067;DHT22;35952;52.524;13.340;2023-04-15T05:08:33;9.70;99.90
50067;DHT22;35952;52.524;13.340;2023-04-15T05:10:58;9.70;99.90
50067;DHT22;35952;52.524;13.340;2023-04-15T05:13:24;9.80;99.90
50067;DHT22;35952;52.524;13.340;2023-04-15T05:15:50;9.90;99.90
50067;DHT22;35952;52.524;13.340;2023-04-15T05:18:15;9.80;99.90
50067;DHT22;35952;52.524;13.340;2023-04-15T05:20:41;9.80;99.90
50067;DHT22;35952;52.524;13.340;2023-04-15T05:23:07;9.90;99.90
50067;DHT22;35952;52.524;13.340;2023-04-15T05:25:32;9.90;99.90
50067;DHT22;35952;52.524;13.340;2023-04-15T05:27:57;9.90;99.90
50067;DHT22;35952;52.524;13.340;2023-04-15T05:30:23;9.90;99.90
50067;DHT22;35952;52.524;13.340;2023-04-15T05:32:49;9.80;99.90
50067;DHT22;35952;52.524;13.340;2023-04-15T05:35:14;9.90;99.90
50067;DHT22;35952;52.524;13.340;2023-04-15T05:37:40;9.90;99.90
50067;DHT22;35952;52.524;13.340;2023-04-15T05:40:06;9.90;99.90
50067;DHT22;35952;52.524;13.340;2023-04-15T05:42:32;9.90;99.90
50067;DHT22;35952;52.524;13.340;2023-04-15T05:44:57;9.90;99.90
50067;DHT22;35952;52.524;13.340;2023-04-15T05:47:23;10.00;99.90
50067;DHT22;35952;52.524;13.340;2023-04-15T05:49:48;10.00;99.90
50067;DHT22;35952;52.524;13.340;2023-04-15T05:52:14;10.00;99.90
50067;DHT22;35952;52.524;13.340;2023-04-15T05:54:39;10.00;99.90
50067;DHT22;35952;52.524;13.340;2023-04-15T05:57:05;10.10;99.90
50067;DHT22;35952;52.524;13.340;2023-04-15T05:59:32;10.20;99.90
50067;DHT22;35952;52.524;13.340;2023-04-15T06:01:57;10.40;99.90
50067;DHT22;35952;52.524;13.340;2023-04-15T06:04:23;10.50;99.90
50067;DHT22;35952;52.524;13.340;2023-04-15T06:06:48;10.60;99.90
50067;DHT22;35952;52.524;13.340;2023-04-15T06:09:14;10.70;99.90
50067;DHT22;35952;52.524;13.340;2023-04-15T06:11:40;10.70;99.90
50067;DHT22;35952;52.524;13.340;2023-04-15T06:14:05;10.80;99.90
50067;DHT22;35952;52.524;13.340;2023-04-15T06:16:31;10.90;99.90
50067;DHT22;35952;52.524;13.340;2023-04-15T06:18:56;10.90;99.90
50067;DHT22;35952;52.524;13.340;2023-04-15T06:21:22;10.90;99.90
50067;DHT22;35952;52.524;13.340;2023-04-15T06:23:48;10.90;99.90
50067;DHT22;35952;52.524;13.340;2023-04-15T06:26:13;10.90;99.90
50067;DHT22;35952;52.524;13.340;2023-04-15T06:28:39;10.90;99.90
50067;DHT22;35952;52.524;13.340;2023-04-15T06:31:04;11.00;99.90
50067;DHT22;35952;52.524;13.340;2023-04-15T06:33:30;11.10;99.90
50067;DHT22;35952;52.524;13.340;2023-04-15T06:35:56;11.00;99.90
50067;DHT22;35952;52.524;13.340;2023-04-15T06:38:21;11.10;99.90
50067;DHT22;35952;52.524;13.340;2023-04-15T06:40:47;11.10;99.90
50067;DHT22;35952;52.524;13.340;2023-04-15T06:43:12;11.10;99.90
50067;DHT22;35952;52.524;13.340;2023-04-15T06:45:38;11.20;99.90
50067;DHT22;35952;52.524;13.340;2023-04-15T06:48:04;11.30;99.90
50067;DHT22;35952;52.524;13.340;2023-04-15T06:50:30;11.40;99.90
50067;DHT22;35952;52.524;13.340;2023-04-15T06:52:55;11.50;99.90
50067;DHT22;35952;52.524;13.340;2023-04-15T06:55:21;11.70;99.90
50067;DHT22;35952;52.524;13.340;2023-04-15T06:57:47;11.80;99.90
50067;DHT22;35952;52.524;13.340;2023-04-15T07:00:13;11.80;99.90
50067;DHT22;35952;52.524;13.340;2023-04-15T07:02:38;11.90;99.90
50067;DHT22;35952;52.524;13.340;2023-04-15T07:05:05;12.00;99.90
50067;DHT22;35952;52.524;13.340;2023-04-15T07:07:31;12.40;99.90
50067;DHT22;35952;52.524;13.340;2023-04-15T07:09:56;12.70;99.90
50067;DHT22;35952;52.524;13.340;2023-04-15T07:12:22;13.10;99.90
50067;DHT22;35952;52.524;13.340;2023-04-15T07:14:48;13.50;99.90
50067;DHT22;35952;52.524;13.340;2023-04-15T07:17:14;13.40;99.90
50067;DHT22;35952;52.524;13.340;2023-04-15T07:19:39;13.20;99.90
50067;DHT22;35952;52.524;13.340;2023-04-15T07:22:05;12.80;99.90
50067;DHT22;35952;52.524;13.340;2023-04-15T07:24:30;12.70;99.90
50067;DHT22;35952;52.524;13.340;2023-04-15T07:26:56;12.50;99.90
50067;DHT22;35952;52.524;13.340;2023-04-15T07:29:22;12.20;99.90
50067;DHT22;35952;52.524;13.340;2023-04-15T07:31:48;12.10;99.90
50067;DHT22;35952;52.524;13.340;2023-04-15T07:34:13;11.90;99.90
50067;DHT22;35952;52.524;13.340;2023-04-15T07:36:39;11.90;99.90
50067;DHT22;35952;52.524;13.340;2023-04-15T07:39:04;11.70;99.90
50067;DHT22;35952;52.524;13.340;2023-04-15T07:41:30;11.60;99.90
50067;DHT22;35952;52.524;13.340;2023-04-15T07:43:56;11.60;99.90
50067;DHT22;35952;52.524;13.340;2023-04-15T07:46:21;11.50;99.90
50067;DHT22;35952;52.524;13.340;2023-04-15T07:48:49;11.50;99.90
50067;DHT22;35952;52.524;13.340;2023-04-15T07:51:15;11.40;99.90
50067;DHT22;35952;52.524;13.340;2023-04-15T07:53:42;11.40;99.90
50067;DHT22;35952;52.524;13.340;2023-04-15T07:56:07;11.40;99.90
50067;DHT22;35952;52.524;13.340;2023-04-15T07:58:33;11.30;99.90
50067;DHT22;35952;52.524;13.340;2023-04-15T08:00:58;11.30;99.90
50067;DHT22;35952;52.524;13.340;2023-04-15T08:03:24;11.20;99.90
50067;DHT22;35952;52.524;13.340;2023-04-15T08:05:49;11.20;99.90
50067;DHT22;35952;52.524;13.340;2023-04-15T08:08:15;11.20;99.90
50067;DHT22;35952;52.524;13.340;2023-04-15T08:10:41;11.30;99.90
50067;DHT22;35952;52.524;13.340;2023-04-15T08:13:06;11.30;99.90
50067;DHT22;35952;52.524;13.340;2023-04-15T08:15:32;11.30;99.90
50067;DHT22;35952;52.524;13.340;2023-04-15T08:17:57;11.30;99.90
50067;DHT22;35952;52.524;13.340;2023-04-15T08:20:25;11.30;99.90
50067;DHT22;35952;52.524;13.340;2023-04-15T08:22:50;11.30;99.90
50067;DHT22;35952;52.524;13.340;2023-04-15T08:25:17;11.20;99.90
50067;DHT22;35952;52.524;13.340;2023-04-15T08:27:44;11.20;99.90
50067;DHT22;35952;52.524;13.340;2023-04-15T08:30:10;11.30;99.90
50067;DHT22;35952;52.524;13.340;2023-04-15T08:32:36;11.20;99.90
50067;DHT22;35952;52.524;13.340;2023-04-15T08:35:02;11.30;99.90
50067;DHT22;35952;52.524;13.340;2023-04-15T08:37:28;11.20;99.90
50067;DHT22;35952;52.524;13.340;2023-04-15T08:39:53;11.10;99.90
50067;DHT22;35952;52.524;13.340;2023-04-15T08:42:22;11.10;99.90
50067;DHT22;35952;52.524;13.340;2023-04-15T08:44:52;11.20;99.90
50067;DHT22;35952;52.524;13.340;2023-04-15T08:47:20;11.30;99.90
50067;DHT22;35952;52.524;13.340;2023-04-15T08:49:47;11.30;99.90
50067;DHT22;35952;52.524;13.340;2023-04-15T08:52:18;11.40;99.90
50067;DHT22;35952;52.524;13.340;2023-04-15T08:54:44;11.40;99.90
50067;DHT22;35952;52.524;13.340;2023-04-15T08:57:10;11.30;99.90
50067;DHT22;35952;52.524;13.340;2023-04-15T08:59:37;11.30;99.90
50067;DHT22;35952;52.524;13.340;2023-04-15T09:02:03;11.20;99.90
50067;DHT22;35952;52.524;13.340;2023-04-15T09:04:28;11.20;99.90
50067;DHT22;35952;52.524;13.340;2023-04-15T09:06:54;11.20;99.90
50067;DHT22;35952;52.524;13.340;2023-04-15T09:09:21;11.20;99.90
50067;DHT22;35952;52.524;13.340;2023-04-15T09:11:47;11.30;99.90
50067;DHT22;35952;52.524;13.340;2023-04-15T09:14:14;11.30;99.90
50067;DHT22;35952;52.524;13.340;2023-04-15T09:16:56;11.30;99.90
50067;DHT22;35952;52.524;13.340;2023-04-15T09:19:23;11.30;99.90
50067;DHT22;35952;52.524;13.340;2023-04-15T09:21:52;11.40;99.90
50067;DHT22;35952;52.524;13.340;2023-04-15T09:24:17;11.50;99.90
50067;DHT22;35952;52.524;13.340;2023-04-15T09:26:43;11.60;99.90
50067;DHT22;35952;52.524;13.340;2023-04-15T09:29:10;11.60;99.90
50067;DHT22;35952;52.524;13.340;2023-04-15T09:31:38;11.60;99.90
50067;DHT22;35952;52.524;13.340;2023-04-15T09:34:05;11.50;99.90
50067;DHT22;35952;52.524;13.340;2023-04-15T09:36:54;11.50;99.90
50067;DHT22;35952;52.524;13.340;2023-04-15T09:39:20;11.50;99.90
50067;DHT22;35952;52.524;13.340;2023-04-15T09:41:46;11.60;99.90
50067;DHT22;35952;52.524;13.340;2023-04-15T09:44:24;11.70;99.90
50067;DHT22;35952;52.524;13.340;2023-04-15T09:46:50;11.60;99.90
50067;DHT22;35952;52.524;13.340;2023-04-15T09:49:16;11.60;99.90
50067;DHT22;35952;52.524;13.340;2023-04-15T09:51:42;11.60;99.90
50067;DHT22;35952;52.524;13.340;2023-04-15T09:54:08;11.60;99.90
50067;DHT22;35952;52.524;13.340;2023-04-15T09:56:35;11.60;99.90
50067;DHT22;35952;52.524;13.340;2023-04-15T09:59:07;11.60;99.90
50067;DHT22;35952;52.524;13.340;2023-04-15T10:01:33;11.60;99.90
50067;DHT22;35952;52.524;13.340;2023-04-15T10:04:01;11.50;99.90
50067;DHT22;35952;52.524;13.340;2023-04-15T10:06:28;11.60;99.90
50067;DHT22;35952;52.524;13.340;2023-04-15T10:08:54;11.40;99.90
50067;DHT22;35952;52.524;13.340;2023-04-15T10:11:21;11.40;99.90
50067;DHT22;35952;52.524;13.340;2023-04-15T10:13:49;11.40;99.90
50067;DHT22;35952;52.524;13.340;2023-04-15T10:16:18;11.40;99.90
50067;DHT22;35952;52.524;13.340;2023-04-15T10:18:46;11.40;99.90
50067;DHT22;35952;52.524;13.340;2023-04-15T10:21:12;11.30;99.90
50067;DHT22;35952;52.524;13.340;2023-04-15T10:23:46;11.10;99.90
50067;DHT22;35952;52.524;13.340;2023-04-15T10:26:12;11.00;99.90
50067;DHT22;35952;52.524;13.340;2023-04-15T10:28:39;11.00;99.90
50067;DHT22;35952;52.524;13.340;2023-04-15T10:31:05;11.00;99.90
50067;DHT22;35952;52.524;13.340;2023-04-15T10:33:31;10.90;99.90
50067;DHT22;35952;52.524;13.340;2023-04-15T10:35:58;11.00;99.90
50067;DHT22;35952;52.524;13.340;2023-04-15T10:41:17;11.10;99.90
50067;DHT22;35952;52.524;13.340;2023-04-15T10:44:02;11.10;99.90
50067;DHT22;35952;52.524;13.340;2023-04-15T10:46:39;11.10;99.90
50067;DHT22;35952;52.524;13.340;2023-04-15T10:49:11;11.20;99.90
50067;DHT22;35952;52.524;13.340;2023-04-15T10:51:39;11.30;99.90
50067;DHT22;35952;52.524;13.340;2023-04-15T10:54:13;11.30;99.90
50067;DHT22;35952;52.524;13.340;2023-04-15T10:56:43;11.40;99.90
50067;DHT22;35952;52.524;13.340;2023-04-15T10:59:09;11.40;99.90
50067;DHT22;35952;52.524;13.340;2023-04-15T11:01:56;11.40;99.90
50067;DHT22;35952;52.524;13.340;2023-04-15T11:15:46;11.60;99.90
50067;DHT22;35952;52.524;13.340;2023-04-15T11:18:15;11.50;99.90
50067;DHT22;35952;52.524;13.340;2023-04-15T11:20:43;11.50;99.90
50067;DHT22;35952;52.524;13.340;2023-04-15T11:23:09;11.40;99.90
50067;DHT22;35952;52.524;13.340;2023-04-15T11:25:35;11.30;99.90
50067;DHT22;35952;52.524;13.340;2023-04-15T11:28:04;11.20;99.90
50067;DHT22;35952;52.524;13.340;2023-04-15T11:30:33;11.20;99.90
50067;DHT22;35952;52.524;13.340;2023-04-15T11:33:07;11.10;99.90
50067;DHT22;35952;52.524;13.340;2023-04-15T11:35:33;11.10;99.90
50067;DHT22;35952;52.524;13.340;2023-04-15T11:38:02;11.10;99.90
50067;DHT22;35952;52.524;13.340;2023-04-15T11:40:29;11.10;99.90
50067;DHT22;35952;52.524;13.340;2023-04-15T11:48:17;11.00;99.90
50067;DHT22;35952;52.524;13.340;2023-04-15T11:50:43;11.00;99.90
50067;DHT22;35952;52.524;13.340;2023-04-15T11:53:10;11.00;99.90
50067;DHT22;35952;52.524;13.340;2023-04-15T11:55:47;11.00;99.90
50067;DHT22;35952;52.524;13.340;2023-04-15T11:58:19;11.00;99.90
50067;DHT22;35952;52.524;13.340;2023-04-15T12:00:58;11.00;99.90
50067;DHT22;35952;52.524;13.340;2023-04-15T12:11:36;11.20;99.90
50067;DHT22;35952;52.524;13.340;2023-04-15T12:14:09;11.10;99.90
50067;DHT22;35952;52.524;13.340;2023-04-15T12:16:39;11.10;99.90
50067;DHT22;35952;52.524;13.340;2023-04-15T12:19:09;11.20;99.90
50067;DHT22;35952;52.524;13.340;2023-04-15T12:21:37;11.20;99.90
50067;DHT22;35952;52.524;13.340;2023-04-15T12:24:05;11.20;99.90
50067;DHT22;35952;52.524;13.340;2023-04-15T12:29:05;11.30;99.90
50067;DHT22;35952;52.524;13.340;2023-04-15T12:31:31;11.40;99.90
50067;DHT22;35952;52.524;13.340;2023-04-15T12:33:58;11.40;99.90
50067;DHT22;35952;52.524;13.340;2023-04-15T12:36:23;11.40;99.90
50067;DHT22;35952;52.524;13.340;2023-04-15T12:38:49;11.60;99.90
50067;DHT22;35952;52.524;13.340;2023-04-15T12:41:15;11.70;99.90
50067;DHT22;35952;52.524;13.340;2023-04-15T12:43:43;11.70;99.90
50067;DHT22;35952;52.524;13.340;2023-04-15T12:46:10;11.70;99.90
50067;DHT22;35952;52.524;13.340;2023-04-15T12:48:35;11.80;99.90
50067;DHT22;35952;52.524;13.340;2023-04-15T12:51:01;11.80;99.90
50067;DHT22;35952;52.524;13.340;2023-04-15T12:53:27;11.80;99.90
50067;DHT22;35952;52.524;13.340;2023-04-15T12:55:53;11.80;99.90
50067;DHT22;35952;52.524;13.340;2023-04-15T12:58:18;11.80;99.90
50067;DHT22;35952;52.524;13.340;2023-04-15T13:00:44;11.70;99.90
50067;DHT22;35952;52.524;13.340;2023-04-15T13:03:10;11.70;99.90
50067;DHT22;35952;52.524;13.340;2023-04-15T13:05:37;11.60;99.90
50067;DHT22;35952;52.524;13.340;2023-04-15T13:08:04;11.60;99.90
50067;DHT22;35952;52.524;13.340;2023-04-15T13:10:30;11.50;99.90
50067;DHT22;35952;52.524;13.340;2023-04-15T13:12:56;11.60;99.90
50067;DHT22;35952;52.524;13.340;2023-04-15T13:15:22;11.70;99.90
50067;DHT22;35952;52.524;13.340;2023-04-15T13:17:48;11.70;99.90
50067;DHT22;35952;52.524;13.340;2023-04-15T13:20:14;11.80;99.90
50067;DHT22;35952;52.524;13.340;2023-04-15T13:22:40;11.80;99.90
50067;DHT22;35952;52.524;13.340;2023-04-15T13:25:06;11.80;99.90
50067;DHT22;35952;52.524;13.340;2023-04-15T13:27:32;11.90;99.90
50067;DHT22;35952;52.524;13.340;2023-04-15T13:29:59;11.80;99.90
50067;DHT22;35952;52.524;13.340;2023-04-15T13:32:25;11.70;99.90
50067;DHT22;35952;52.524;13.340;2023-04-15T13:34:51;11.60;99.90
50067;DHT22;35952;52.524;13.340;2023-04-15T13:37:16;11.60;99.90
50067;DHT22;35952;52.524;13.340;2023-04-15T13:39:42;11.60;99.90
50067;DHT22;35952;52.524;13.340;2023-04-15T13:42:08;11.60;99.90
50067;DHT22;35952;52.524;13.340;2023-04-15T13:44:34;11.80;99.90
50067;DHT22;35952;52.524;13.340;2023-04-15T13:46:59;11.80;99.90
50067;DHT22;35952;52.524;13.340;2023-04-15T13:49:25;11.70;99.90
50067;DHT22;35952;52.524;13.340;2023-04-15T13:51:51;11.60;99.90
50067;DHT22;35952;52.524;13.340;2023-04-15T13:54:17;11.60;99.90
50067;DHT22;35952;52.524;13.340;2023-04-15T13:56:42;11.60;99.90
50067;DHT22;35952;52.524;13.340;2023-04-15T13:59:08;11.50;99.90
50067;DHT22;35952;52.524;13.340;2023-04-15T14:01:34;11.60;99.90
50067;DHT22;35952;52.524;13.340;2023-04-15T14:04:00;11.60;99.90
50067;DHT22;35952;52.524;13.340;2023-04-15T14:06:29;11.70;99.90
50067;DHT22;35952;52.524;13.340;2023-04-15T14:08:55;11.70;99.90
50067;DHT22;35952;52.524;13.340;2023-04-15T14:11:21;11.70;99.90
50067;DHT22;35952;52.524;13.340;2023-04-15T14:13:47;11.70;99.90
50067;DHT22;35952;52.524;13.340;2023-04-15T14:16:12;11.70;99.90
50067;DHT22;35952;52.524;13.340;2023-04-15T14:18:39;11.70;99.90
50067;DHT22;35952;52.524;13.340;2023-04-15T14:21:05;11.70;99.90
50067;DHT22;35952;52.524;13.340;2023-04-15T14:23:31;11.60;99.90
50067;DHT22;35952;52.524;13.340;2023-04-15T14:25:57;11.70;99.90
50067;DHT22;35952;52.524;13.340;2023-04-15T14:28:23;11.60;99.90
50067;DHT22;35952;52.524;13.340;2023-04-15T14:30:48;11.60;99.90
50067;DHT22;35952;52.524;13.340;2023-04-15T14:33:14;11.60;99.90
50067;DHT22;35952;52.524;13.340;2023-04-15T14:35:40;11.60;99.90
50067;DHT22;35952;52.524;13.340;2023-04-15T14:38:06;11.60;99.90
50067;DHT22;35952;52.524;13.340;2023-04-15T14:40:35;11.60;99.90
50067;DHT22;35952;52.524;13.340;2023-04-15T14:43:03;11.50;99.90
50067;DHT22;35952;52.524;13.340;2023-04-15T14:45:29;11.40;99.90
50067;DHT22;35952;52.524;13.340;2023-04-15T14:47:55;11.40;99.90
50067;DHT22;35952;52.524;13.340;2023-04-15T14:50:21;11.50;99.90
50067;DHT22;35952;52.524;13.340;2023-04-15T14:52:46;11.40;99.90
50067;DHT22;35952;52.524;13.340;2023-04-15T14:55:13;11.40;99.90
50067;DHT22;35952;52.524;13.340;2023-04-15T14:57:40;11.50;99.90
50067;DHT22;35952;52.524;13.340;2023-04-15T15:00:26;11.50;99.90
50067;DHT22;35952;52.524;13.340;2023-04-15T15:02:52;11.50;99.90
50067;DHT22;35952;52.524;13.340;2023-04-15T15:05:18;11.50;99.90
50067;DHT22;35952;52.524;13.340;2023-04-15T15:07:43;11.50;99.90
50067;DHT22;35952;52.524;13.340;2023-04-15T15:10:09;11.50;99.90
50067;DHT22;35952;52.524;13.340;2023-04-15T15:12:35;11.50;99.90
50067;DHT22;35952;52.524;13.340;2023-04-15T15:15:02;11.40;99.90
50067;DHT22;35952;52.524;13.340;2023-04-15T15:17:28;11.50;99.90
50067;DHT22;35952;52.524;13.340;2023-04-15T15:19:54;11.50;99.90
50067;DHT22;35952;52.524;13.340;2023-04-15T15:22:19;11.50;99.90
50067;DHT22;35952;52.524;13.340;2023-04-15T15:24:45;11.50;99.90
50067;DHT22;35952;52.524;13.340;2023-04-15T15:27:10;11.40;99.90
50067;DHT22;35952;52.524;13.340;2023-04-15T15:29:36;11.40;99.90
50067;DHT22;35952;52.524;13.340;2023-04-15T15:32:02;11.30;99.90
50067;DHT22;35952;52.524;13.340;2023-04-15T15:34:27;11.40;99.90
50067;DHT22;35952;52.524;13.340;2023-04-15T15:36:53;11.40;99.90
50067;DHT22;35952;52.524;13.340;2023-04-15T15:39:21;11.30;99.90
50067;DHT22;35952;52.524;13.340;2023-04-15T15:41:47;11.40;99.90
50067;DHT22;35952;52.524;13.340;2023-04-15T15:44:13;11.30;99.90
50067;DHT22;35952;52.524;13.340;2023-04-15T15:46:38;11.30;99.90
50067;DHT22;35952;52.524;13.340;2023-04-15T15:49:04;11.20;99.90